createdAt,value
2023-03-23T15:59:47.165Z,64.22
2023-03-23T16:02:21.865Z,63.72
2023-03-23T16:04:50.698Z,63.51
2023-03-23T16:07:23.611Z,63.23
2023-03-23T16:09:52.029Z,63.14
2023-03-23T16:12:22.343Z,62.80
2023-03-23T16:14:51.307Z,62.64
2023-03-23T16:17:21.879Z,62.03
2023-03-23T16:19:50.477Z,62.17
2023-03-23T16:22:18.981Z,62.29
2023-03-23T16:24:47.533Z,62.92
2023-03-23T16:27:16.240Z,63.45
2023-03-23T16:30:02.178Z,63.98
2023-03-23T16:32:45.561Z,64.24
2023-03-23T16:35:18.370Z,64.52
2023-03-23T16:37:47.927Z,64.83
2023-03-23T16:40:23.119Z,65.24
2023-03-23T16:42:51.858Z,65.47
2023-03-23T16:45:24.197Z,66.12
2023-03-23T16:47:55.162Z,66.72
2023-03-23T16:50:27.995Z,66.92
2023-03-23T16:52:57.436Z,67.57
2023-03-23T16:55:27.381Z,68.41
2023-03-23T16:58:13.256Z,68.82
2023-03-23T17:00:49.001Z,69.20
2023-03-23T17:03:18.719Z,69.21
2023-03-23T17:05:49.443Z,69.50
2023-03-23T17:08:18.150Z,69.38
2023-03-23T17:11:51.467Z,69.18
2023-03-23T17:14:19.988Z,69.58
2023-03-23T17:16:49.734Z,69.51
2023-03-23T17:19:18.223Z,69.48
2023-03-23T17:21:46.897Z,69.54
2023-03-23T17:24:16.905Z,69.85
2023-03-23T17:26:47.211Z,69.84
2023-03-23T17:29:23.262Z,69.52
2023-03-23T17:31:53.693Z,69.63
2023-03-23T17:34:22.253Z,69.67
2023-03-23T17:36:51.821Z,69.61
2023-03-23T17:39:20.677Z,69.75
2023-03-23T17:41:49.261Z,69.88
2023-03-23T17:44:18.013Z,70.07
2023-03-23T17:46:47.078Z,69.94
2023-03-23T17:49:18.601Z,70.12
2023-03-23T17:51:47.449Z,70.22
2023-03-23T17:54:15.988Z,70.78
2023-03-23T17:56:45.579Z,70.83
2023-03-23T17:59:14.334Z,70.95
2023-03-23T18:01:50.120Z,71.24
2023-03-23T18:04:20.310Z,71.46
2023-03-23T18:06:48.818Z,71.55
2023-03-23T18:09:17.745Z,71.86
2023-03-23T18:11:47.403Z,71.67
2023-03-23T18:14:18.359Z,71.69
2023-03-23T18:16:47.603Z,70.38
2023-03-23T18:19:17.469Z,71.11
2023-03-23T18:21:48.539Z,71.77
2023-03-23T18:24:17.466Z,72.08
2023-03-23T18:26:47.650Z,72.06
2023-03-23T18:29:17.142Z,72.28
2023-03-23T18:31:47.905Z,72.07
2023-03-23T18:34:19.780Z,72.23
2023-03-23T18:37:49.150Z,71.96
2023-03-23T18:40:35.259Z,72.49
2023-03-23T18:43:04.127Z,72.94
2023-03-23T19:03:31.153Z,73.13
2023-03-23T19:06:00.656Z,73.35
2023-03-23T19:08:29.898Z,73.27
2023-03-23T19:11:01.087Z,73.10
2023-03-23T19:13:30.835Z,72.69
2023-03-23T19:15:59.425Z,73.07
2023-03-23T19:18:28.130Z,72.86
2023-03-23T19:23:30.721Z,72.68
2023-03-23T19:25:59.373Z,72.72
2023-03-23T19:31:00.309Z,72.94
2023-03-23T19:33:29.308Z,72.81
2023-03-23T19:36:09.095Z,72.68
2023-03-23T19:38:40.085Z,72.62
2023-03-23T19:41:08.763Z,72.98
2023-03-23T19:43:37.858Z,73.00
2023-03-23T19:46:06.641Z,72.98
2023-03-23T19:48:35.038Z,73.22
2023-03-23T19:51:05.015Z,73.51
2023-03-23T19:53:33.482Z,73.10
2023-03-23T19:56:03.649Z,73.27
2023-03-23T19:58:34.580Z,73.48
2023-03-23T20:01:03.001Z,73.53
2023-03-23T20:03:31.378Z,73.53
2023-03-23T20:06:01.378Z,73.84
2023-03-23T20:08:31.741Z,73.80
2023-03-23T20:11:05.734Z,73.88
2023-03-23T20:13:34.283Z,73.77
2023-03-23T20:16:03.259Z,73.82
2023-03-23T20:18:31.984Z,74.25
2023-03-23T20:21:04.762Z,74.17
2023-03-23T20:23:35.822Z,73.90
2023-03-23T20:26:07.261Z,74.16
2023-03-23T20:28:36.083Z,74.11
2023-03-23T20:31:18.770Z,74.44
2023-03-23T20:34:01.083Z,74.28
2023-03-23T20:36:35.155Z,74.32
2023-03-23T20:39:08.162Z,74.26
2023-03-23T20:41:38.900Z,74.23
2023-03-23T20:44:09.296Z,74.82
2023-03-23T20:46:37.808Z,74.97
2023-03-23T20:49:06.572Z,74.64
2023-03-23T20:51:35.088Z,74.79
2023-03-23T20:54:06.157Z,75.11
2023-03-23T20:56:35.759Z,75.23
2023-03-23T20:59:05.826Z,75.07
2023-03-23T21:01:34.485Z,75.02
2023-03-23T21:04:03.461Z,75.50
2023-03-23T21:06:34.123Z,75.69
2023-03-23T21:09:03.844Z,75.90
2023-03-23T21:11:35.330Z,75.84
2023-03-23T21:14:04.531Z,76.14
2023-03-23T21:16:32.964Z,76.42
2023-03-23T21:19:01.749Z,76.09
2023-03-23T21:21:30.369Z,76.38
2023-03-23T21:23:59.193Z,76.33
2023-03-23T21:26:29.767Z,76.19
2023-03-23T21:29:01.075Z,76.40
2023-03-23T21:31:32.009Z,76.21
2023-03-23T21:34:00.467Z,76.40
2023-03-23T21:36:29.827Z,76.39
2023-03-23T21:38:58.873Z,76.27
2023-03-23T21:41:30.127Z,76.63
2023-03-23T21:44:12.203Z,76.58
2023-03-23T21:46:42.144Z,76.27
2023-03-23T21:49:14.288Z,76.22
2023-03-23T21:51:44.039Z,76.44
2023-03-23T21:54:13.413Z,76.39
2023-03-23T21:56:42.017Z,76.74
2023-03-23T21:59:11.758Z,76.92
2023-03-23T22:01:40.652Z,76.81
2023-03-23T22:04:09.313Z,76.98
2023-03-23T22:06:38.061Z,76.72
2023-03-23T22:09:07.138Z,77.19
2023-03-23T22:11:35.682Z,77.12
2023-03-23T22:14:04.464Z,77.26
2023-03-23T22:16:34.549Z,77.12
2023-03-23T22:19:03.421Z,77.00
2023-03-23T22:21:32.029Z,77.27
2023-03-23T22:24:02.056Z,77.87
2023-03-23T22:26:31.381Z,77.82
2023-03-23T22:29:01.041Z,77.91
2023-03-23T22:31:32.722Z,78.24
2023-03-23T22:34:03.292Z,77.93
2023-03-23T22:36:33.457Z,78.59
2023-03-23T22:39:02.609Z,78.53
2023-03-23T22:41:33.690Z,78.47
2023-03-23T22:44:03.547Z,78.36
2023-03-23T22:46:32.090Z,78.46
2023-03-23T22:49:00.772Z,78.85
2023-03-23T22:51:30.835Z,78.50
2023-03-23T22:53:59.606Z,78.48
2023-03-23T22:56:28.127Z,78.90
2023-03-23T22:58:59.034Z,78.34
2023-03-23T23:01:29.031Z,78.75
2023-03-23T23:03:58.870Z,78.28
2023-03-23T23:06:27.790Z,78.83
2023-03-23T23:08:57.820Z,78.22
2023-03-23T23:11:27.889Z,78.47
2023-03-23T23:13:57.624Z,78.46
2023-03-23T23:16:27.932Z,78.76
2023-03-23T23:18:57.084Z,78.87
2023-03-23T23:21:27.278Z,78.98
2023-03-23T23:23:55.774Z,79.13
2023-03-23T23:26:25.767Z,78.92
2023-03-23T23:28:54.399Z,79.51
2023-03-23T23:31:26.359Z,79.80
2023-03-23T23:33:57.052Z,79.57
2023-03-23T23:36:30.531Z,80.01
2023-03-23T23:39:00.296Z,80.14
2023-03-23T23:41:30.986Z,80.28
2023-03-23T23:44:00.093Z,80.31
2023-03-23T23:46:30.729Z,80.46
2023-03-23T23:48:59.866Z,80.68
2023-03-23T23:51:28.868Z,80.30
2023-03-23T23:53:59.257Z,80.49
2023-03-23T23:56:29.499Z,80.56
2023-03-23T23:58:58.747Z,80.89
